WAT7YN RJSS-RJOA
Flight info
| Callsign | WAT7YN |
|---|---|
| Flight time | 1h 34m |
| Altitude | 32000 |
| Route | GTC Y45 KMC Y382 WAKIT Y20 KAMMY Y202 AMURO |
| Aircraft | B738/M-SDE2E3FGHIRWXY/LB1 |
Departure
| Time | 2026-04-30 07:33 |
|---|---|
| Airport | Sendai Airport (RJSS) |
Arrival
| Time | 2026-04-30 09:07 |
|---|---|
| Airport | Hiroshima Airport (RJOA) |
| Time | Latitude | Longitude | Altitude | Speed | Heading |
|---|---|---|---|---|---|
| 2026-04-30 07:23 | 38.13979 | 140.92921 | 13 ft | 4 kts | 195° |
| 2026-04-30 07:23 | 38.14001 | 140.92932 | 12 ft | 1 kts | 211° |
| 2026-04-30 07:25 | 38.14000 | 140.92929 | 12 ft | 1 kts | 225° |
| 2026-04-30 07:26 | 38.14000 | 140.92917 | 13 ft | 3 kts | 282° |
| 2026-04-30 07:26 | 38.14016 | 140.92859 | 14 ft | 11 kts | 270° |
| 2026-04-30 07:26 | 38.14003 | 140.92735 | 12 ft | 16 kts | 262° |
| 2026-04-30 07:26 | 38.13987 | 140.92600 | 12 ft | 15 kts | 261° |
| 2026-04-30 07:27 | 38.13971 | 140.92471 | 13 ft | 14 kts | 261° |
| 2026-04-30 07:27 | 38.13963 | 140.92346 | 12 ft | 14 kts | 265° |
| 2026-04-30 07:27 | 38.13951 | 140.92227 | 12 ft | 13 kts | 262° |
| 2026-04-30 07:27 | 38.13939 | 140.92113 | 12 ft | 13 kts | 262° |
| 2026-04-30 07:28 | 38.13928 | 140.92003 | 13 ft | 12 kts | 263° |
| 2026-04-30 07:28 | 38.13917 | 140.91892 | 12 ft | 13 kts | 263° |
| 2026-04-30 07:28 | 38.13903 | 140.91762 | 12 ft | 17 kts | 262° |
| 2026-04-30 07:28 | 38.13885 | 140.91605 | 15 ft | 20 kts | 261° |
| 2026-04-30 07:29 | 38.13866 | 140.91421 | 12 ft | 21 kts | 262° |
| 2026-04-30 07:29 | 38.13847 | 140.91236 | 12 ft | 21 kts | 262° |
| 2026-04-30 07:29 | 38.13828 | 140.91057 | 12 ft | 20 kts | 264° |
| 2026-04-30 07:29 | 38.13812 | 140.90885 | 13 ft | 20 kts | 262° |
| 2026-04-30 07:30 | 38.13778 | 140.90554 | 11 ft | 18 kts | 263° |
| 2026-04-30 07:30 | 38.13763 | 140.90397 | 11 ft | 18 kts | 263° |
| 2026-04-30 07:30 | 38.13748 | 140.90245 | 11 ft | 17 kts | 263° |
| 2026-04-30 07:31 | 38.13734 | 140.90112 | 12 ft | 12 kts | 262° |
| 2026-04-30 07:31 | 38.13723 | 140.90007 | 13 ft | 11 kts | 262° |
| 2026-04-30 07:31 | 38.13745 | 140.89924 | 12 ft | 10 kts | 315° |
| 2026-04-30 07:31 | 38.13810 | 140.89898 | 15 ft | 10 kts | 353° |
| 2026-04-30 07:32 | 38.13866 | 140.89901 | 16 ft | 8 kts | 32° |
| 2026-04-30 07:32 | 38.13894 | 140.90064 | 15 ft | 47 kts | 82° |
| 2026-04-30 07:32 | 38.13968 | 140.90764 | 17 ft | 111 kts | 83° |
| 2026-04-30 07:32 | 38.14101 | 140.91961 | 60 ft | 156 kts | 84° |
| 2026-04-30 07:33 | 38.14264 | 140.93356 | 605 ft | 163 kts | 87° |
| 2026-04-30 07:33 | 38.14414 | 140.94806 | 1266 ft | 167 kts | 89° |
| 2026-04-30 07:33 | 38.14567 | 140.96371 | 1614 ft | 192 kts | 89° |
| 2026-04-30 07:33 | 38.14744 | 140.98158 | 1862 ft | 216 kts | 88° |
| 2026-04-30 07:34 | 38.14887 | 141.00161 | 2056 ft | 239 kts | 98° |
| 2026-04-30 07:34 | 38.14269 | 141.02109 | 2504 ft | 243 kts | 133° |
| 2026-04-30 07:34 | 38.12880 | 141.03298 | 3117 ft | 245 kts | 165° |
| 2026-04-30 07:34 | 38.11175 | 141.03413 | 3774 ft | 249 kts | 187° |
| 2026-04-30 07:35 | 38.10041 | 141.03148 | 4230 ft | 252 kts | 192° |
| 2026-04-30 07:35 | 38.08310 | 141.02643 | 4919 ft | 256 kts | 192° |
| 2026-04-30 07:35 | 38.06568 | 141.02137 | 5623 ft | 258 kts | 192° |
| 2026-04-30 07:35 | 38.04798 | 141.01646 | 6290 ft | 264 kts | 191° |
| 2026-04-30 07:36 | 38.02996 | 141.01161 | 6999 ft | 266 kts | 191° |
| 2026-04-30 07:36 | 38.01179 | 141.00676 | 7719 ft | 268 kts | 193° |
| 2026-04-30 07:36 | 37.99473 | 140.99679 | 8286 ft | 277 kts | 220° |
| 2026-04-30 07:36 | 37.98361 | 140.97752 | 9199 ft | 272 kts | 246° |
| 2026-04-30 07:37 | 37.97967 | 140.95387 | 9901 ft | 278 kts | 269° |
| 2026-04-30 07:37 | 37.98106 | 140.92928 | 10564 ft | 285 kts | 274° |
| 2026-04-30 07:37 | 37.98341 | 140.90324 | 10725 ft | 309 kts | 275° |
| 2026-04-30 07:37 | 37.98610 | 140.87520 | 10890 ft | 332 kts | 276° |
| 2026-04-30 07:38 | 37.98892 | 140.84537 | 11147 ft | 349 kts | 276° |
| 2026-04-30 07:38 | 37.99175 | 140.81448 | 11702 ft | 356 kts | 275° |
| 2026-04-30 07:38 | 37.99452 | 140.78340 | 12526 ft | 354 kts | 275° |
| 2026-04-30 07:38 | 37.99725 | 140.75205 | 13167 ft | 360 kts | 275° |
| 2026-04-30 07:39 | 37.99998 | 140.72043 | 13867 ft | 363 kts | 275° |
| 2026-04-30 07:39 | 38.00273 | 140.68826 | 14466 ft | 369 kts | 275° |
| 2026-04-30 07:39 | 38.00546 | 140.65617 | 15078 ft | 374 kts | 275° |
| 2026-04-30 07:39 | 38.00815 | 140.62326 | 15744 ft | 377 kts | 273° |
| 2026-04-30 07:40 | 38.00842 | 140.58996 | 16407 ft | 379 kts | 266° |
| 2026-04-30 07:40 | 38.00692 | 140.55633 | 17048 ft | 383 kts | 265° |
| 2026-04-30 07:40 | 38.00538 | 140.52241 | 17655 ft | 388 kts | 266° |
| 2026-04-30 07:40 | 38.00418 | 140.48791 | 18253 ft | 393 kts | 266° |
| 2026-04-30 07:41 | 38.00317 | 140.45307 | 18815 ft | 397 kts | 266° |
| 2026-04-30 07:41 | 38.00221 | 140.41823 | 19623 ft | 391 kts | 267° |
| 2026-04-30 07:41 | 38.00125 | 140.38396 | 20417 ft | 388 kts | 267° |
| 2026-04-30 07:41 | 38.00027 | 140.34968 | 20988 ft | 390 kts | 267° |
| 2026-04-30 07:42 | 37.99927 | 140.31526 | 21590 ft | 391 kts | 267° |
| 2026-04-30 07:42 | 37.99826 | 140.28096 | 22238 ft | 390 kts | 268° |
| 2026-04-30 07:42 | 37.99725 | 140.24668 | 22900 ft | 388 kts | 268° |
| 2026-04-30 07:42 | 37.99622 | 140.21250 | 23520 ft | 387 kts | 268° |
| 2026-04-30 07:43 | 37.99518 | 140.17839 | 24043 ft | 387 kts | 268° |
| 2026-04-30 07:43 | 37.99414 | 140.14433 | 24520 ft | 386 kts | 268° |
| 2026-04-30 07:43 | 37.99309 | 140.11043 | 25034 ft | 384 kts | 268° |
| 2026-04-30 07:43 | 37.99203 | 140.07657 | 25464 ft | 385 kts | 268° |
| 2026-04-30 07:44 | 37.99096 | 140.04264 | 25857 ft | 386 kts | 268° |
| 2026-04-30 07:44 | 37.98990 | 140.00902 | 26265 ft | 386 kts | 268° |
| 2026-04-30 07:44 | 37.98881 | 139.97518 | 26831 ft | 382 kts | 268° |
| 2026-04-30 07:44 | 37.98773 | 139.94186 | 27529 ft | 375 kts | 268° |
| 2026-04-30 07:45 | 37.98667 | 139.90905 | 28191 ft | 370 kts | 267° |
| 2026-04-30 07:45 | 37.98559 | 139.87661 | 28750 ft | 367 kts | 267° |
| 2026-04-30 07:45 | 37.98453 | 139.84449 | 29376 ft | 362 kts | 267° |
| 2026-04-30 07:45 | 37.98347 | 139.81280 | 30041 ft | 357 kts | 267° |
| 2026-04-30 07:46 | 37.98242 | 139.78156 | 30607 ft | 353 kts | 266° |
| 2026-04-30 07:46 | 37.98138 | 139.75060 | 31060 ft | 351 kts | 266° |
| 2026-04-30 07:46 | 37.98032 | 139.71977 | 31483 ft | 350 kts | 265° |
| 2026-04-30 07:46 | 37.97926 | 139.68901 | 31862 ft | 349 kts | 265° |
| 2026-04-30 07:47 | 37.97819 | 139.65835 | 32111 ft | 347 kts | 265° |
| 2026-04-30 07:47 | 37.97602 | 139.59713 | 32128 ft | 350 kts | 264° |
| 2026-04-30 07:48 | 37.97383 | 139.53545 | 32142 ft | 350 kts | 264° |
| 2026-04-30 07:48 | 37.97161 | 139.47387 | 32126 ft | 349 kts | 264° |
| 2026-04-30 07:49 | 37.96937 | 139.41279 | 32129 ft | 349 kts | 264° |
| 2026-04-30 07:49 | 37.96709 | 139.35150 | 32113 ft | 348 kts | 264° |
| 2026-04-30 07:50 | 37.96478 | 139.29031 | 32104 ft | 347 kts | 264° |
| 2026-04-30 07:50 | 37.96246 | 139.22937 | 32103 ft | 346 kts | 264° |
| 2026-04-30 07:51 | 37.96010 | 139.16845 | 32102 ft | 345 kts | 264° |
| 2026-04-30 07:51 | 37.95134 | 139.10926 | 32112 ft | 343 kts | 249° |
| 2026-04-30 07:52 | 37.92689 | 139.05709 | 32101 ft | 347 kts | 239° |
| 2026-04-30 07:52 | 37.89902 | 139.00753 | 32104 ft | 348 kts | 238° |
| 2026-04-30 07:53 | 37.87099 | 138.95762 | 32105 ft | 348 kts | 239° |
| 2026-04-30 07:53 | 37.84306 | 138.90756 | 32107 ft | 348 kts | 239° |
| 2026-04-30 07:54 | 37.81515 | 138.85743 | 32103 ft | 348 kts | 238° |
| 2026-04-30 07:54 | 37.78720 | 138.80725 | 32108 ft | 349 kts | 238° |
| 2026-04-30 07:55 | 37.75923 | 138.75709 | 32108 ft | 349 kts | 238° |
| 2026-04-30 07:55 | 37.73131 | 138.70709 | 32108 ft | 348 kts | 238° |
| 2026-04-30 07:56 | 37.70352 | 138.65741 | 32109 ft | 348 kts | 238° |
| 2026-04-30 07:56 | 37.67558 | 138.60753 | 32105 ft | 347 kts | 238° |
| 2026-04-30 07:57 | 37.64776 | 138.55791 | 32105 ft | 346 kts | 238° |
| 2026-04-30 07:57 | 37.61991 | 138.50833 | 32103 ft | 346 kts | 238° |
| 2026-04-30 07:58 | 37.59201 | 138.45894 | 32103 ft | 345 kts | 238° |
| 2026-04-30 07:58 | 37.56389 | 138.41001 | 32103 ft | 345 kts | 238° |
| 2026-04-30 07:59 | 37.53572 | 138.36112 | 32100 ft | 344 kts | 238° |
| 2026-04-30 07:59 | 37.50758 | 138.31227 | 32100 ft | 344 kts | 238° |
| 2026-04-30 08:00 | 37.46554 | 138.23936 | 32091 ft | 344 kts | 237° |
| 2026-04-30 08:00 | 37.43738 | 138.19060 | 32092 ft | 345 kts | 237° |
| 2026-04-30 08:01 | 37.40910 | 138.14169 | 32097 ft | 346 kts | 237° |
| 2026-04-30 08:01 | 37.38065 | 138.09258 | 32094 ft | 348 kts | 237° |
| 2026-04-30 08:02 | 37.33781 | 138.01874 | 32087 ft | 349 kts | 237° |
| 2026-04-30 08:03 | 37.28043 | 137.92008 | 32081 ft | 349 kts | 237° |
| 2026-04-30 08:04 | 37.25189 | 137.87070 | 32086 ft | 348 kts | 238° |
| 2026-04-30 08:04 | 37.22502 | 137.82039 | 32087 ft | 347 kts | 239° |
| 2026-04-30 08:05 | 37.19811 | 137.77026 | 32084 ft | 346 kts | 238° |
| 2026-04-30 08:05 | 37.17024 | 137.72108 | 32069 ft | 346 kts | 237° |
| 2026-04-30 08:06 | 37.14204 | 137.67239 | 32089 ft | 345 kts | 237° |
| 2026-04-30 08:06 | 37.11396 | 137.62376 | 32088 ft | 344 kts | 237° |
| 2026-04-30 08:07 | 37.08611 | 137.57542 | 32085 ft | 344 kts | 237° |
| 2026-04-30 08:07 | 37.05808 | 137.52680 | 32081 ft | 344 kts | 237° |
| 2026-04-30 08:08 | 37.02999 | 137.47844 | 32080 ft | 344 kts | 236° |
| 2026-04-30 08:08 | 37.00106 | 137.43070 | 32074 ft | 344 kts | 236° |
| 2026-04-30 08:09 | 36.97199 | 137.38306 | 32083 ft | 345 kts | 236° |
| 2026-04-30 08:09 | 36.94295 | 137.33535 | 32080 ft | 345 kts | 235° |
| 2026-04-30 08:10 | 36.91391 | 137.28763 | 32063 ft | 345 kts | 235° |
| 2026-04-30 08:10 | 36.88486 | 137.23994 | 32066 ft | 345 kts | 235° |
| 2026-04-30 08:11 | 36.85580 | 137.19227 | 32065 ft | 345 kts | 235° |
| 2026-04-30 08:11 | 36.82672 | 137.14467 | 32061 ft | 345 kts | 235° |
| 2026-04-30 08:12 | 36.79863 | 137.09635 | 32058 ft | 344 kts | 237° |
| 2026-04-30 08:12 | 36.77169 | 137.04708 | 32056 ft | 344 kts | 237° |
| 2026-04-30 08:13 | 36.74448 | 136.99807 | 32040 ft | 344 kts | 237° |
| 2026-04-30 08:13 | 36.71693 | 136.94939 | 32053 ft | 343 kts | 236° |
| 2026-04-30 08:14 | 36.68916 | 136.90093 | 32053 ft | 343 kts | 236° |
| 2026-04-30 08:14 | 36.66142 | 136.85250 | 32043 ft | 343 kts | 236° |
| 2026-04-30 08:15 | 36.63368 | 136.80405 | 32057 ft | 343 kts | 236° |
| 2026-04-30 08:15 | 36.60605 | 136.75588 | 32058 ft | 344 kts | 236° |
| 2026-04-30 08:16 | 36.57771 | 136.70781 | 32051 ft | 345 kts | 235° |
| 2026-04-30 08:16 | 36.54897 | 136.65977 | 32043 ft | 346 kts | 235° |
| 2026-04-30 08:17 | 36.52027 | 136.61174 | 32046 ft | 346 kts | 235° |
| 2026-04-30 08:17 | 36.49162 | 136.56378 | 32046 ft | 345 kts | 235° |
| 2026-04-30 08:18 | 36.46307 | 136.51600 | 32050 ft | 344 kts | 235° |
| 2026-04-30 08:18 | 36.43449 | 136.46823 | 32048 ft | 344 kts | 235° |
| 2026-04-30 08:19 | 36.40597 | 136.42069 | 32048 ft | 343 kts | 234° |
| 2026-04-30 08:19 | 36.37292 | 136.37774 | 32054 ft | 345 kts | 226° |
| 2026-04-30 08:20 | 36.33706 | 136.33821 | 32047 ft | 345 kts | 226° |
| 2026-04-30 08:20 | 36.30727 | 136.30533 | 32041 ft | 345 kts | 226° |
| 2026-04-30 08:21 | 36.27155 | 136.26576 | 32047 ft | 344 kts | 226° |
| 2026-04-30 08:21 | 36.23583 | 136.22618 | 32040 ft | 345 kts | 226° |
| 2026-04-30 08:22 | 36.20011 | 136.18663 | 32038 ft | 345 kts | 226° |
| 2026-04-30 08:22 | 36.16423 | 136.14696 | 32038 ft | 346 kts | 226° |
| 2026-04-30 08:23 | 36.12850 | 136.10756 | 32026 ft | 346 kts | 226° |
| 2026-04-30 08:23 | 36.09229 | 136.06780 | 32036 ft | 347 kts | 226° |
| 2026-04-30 08:24 | 36.05636 | 136.02840 | 32030 ft | 348 kts | 226° |
| 2026-04-30 08:24 | 36.02012 | 135.98868 | 32021 ft | 349 kts | 225° |
| 2026-04-30 08:25 | 35.98377 | 135.94888 | 32029 ft | 349 kts | 225° |
| 2026-04-30 08:25 | 35.94748 | 135.90920 | 32028 ft | 348 kts | 225° |
| 2026-04-30 08:26 | 35.91120 | 135.86959 | 32030 ft | 347 kts | 225° |
| 2026-04-30 08:26 | 35.87506 | 135.83017 | 32026 ft | 347 kts | 225° |
| 2026-04-30 08:27 | 35.83894 | 135.79082 | 32027 ft | 346 kts | 225° |
| 2026-04-30 08:27 | 35.80288 | 135.75159 | 32023 ft | 345 kts | 225° |
| 2026-04-30 08:28 | 35.76687 | 135.71245 | 32025 ft | 345 kts | 225° |
| 2026-04-30 08:28 | 35.73089 | 135.67340 | 32021 ft | 345 kts | 225° |
| 2026-04-30 08:29 | 35.69497 | 135.63445 | 32023 ft | 344 kts | 225° |
| 2026-04-30 08:29 | 35.65894 | 135.59543 | 32022 ft | 345 kts | 225° |
| 2026-04-30 08:30 | 35.62288 | 135.55647 | 32021 ft | 345 kts | 225° |
| 2026-04-30 08:30 | 35.58696 | 135.51775 | 32024 ft | 346 kts | 225° |
| 2026-04-30 08:31 | 35.55052 | 135.47850 | 32014 ft | 347 kts | 225° |
| 2026-04-30 08:31 | 35.51446 | 135.43970 | 32019 ft | 347 kts | 224° |
| 2026-04-30 08:32 | 35.47806 | 135.40058 | 32020 ft | 348 kts | 224° |
| 2026-04-30 08:32 | 35.44155 | 135.36138 | 32005 ft | 349 kts | 224° |
| 2026-04-30 08:33 | 35.40500 | 135.32218 | 32010 ft | 349 kts | 224° |
| 2026-04-30 08:33 | 35.36845 | 135.28304 | 32027 ft | 349 kts | 224° |
| 2026-04-30 08:34 | 35.33195 | 135.24401 | 32023 ft | 348 kts | 224° |
| 2026-04-30 08:34 | 35.29539 | 135.20496 | 32009 ft | 348 kts | 224° |
| 2026-04-30 08:35 | 35.25891 | 135.16602 | 32030 ft | 349 kts | 224° |
| 2026-04-30 08:35 | 35.22232 | 135.12703 | 32035 ft | 349 kts | 224° |
| 2026-04-30 08:36 | 35.18579 | 135.08815 | 32004 ft | 348 kts | 224° |
| 2026-04-30 08:36 | 35.14943 | 135.04950 | 32011 ft | 345 kts | 224° |
| 2026-04-30 08:37 | 35.11325 | 135.01107 | 32030 ft | 344 kts | 224° |
| 2026-04-30 08:37 | 35.07706 | 134.97268 | 32011 ft | 344 kts | 224° |
| 2026-04-30 08:38 | 35.04550 | 134.92940 | 32013 ft | 343 kts | 238° |
| 2026-04-30 08:38 | 35.02437 | 134.87709 | 32020 ft | 347 kts | 250° |
| 2026-04-30 08:39 | 35.01376 | 134.81977 | 32027 ft | 350 kts | 253° |
| 2026-04-30 08:39 | 35.00381 | 134.76139 | 31989 ft | 352 kts | 253° |
| 2026-04-30 08:40 | 34.99351 | 134.70305 | 31992 ft | 350 kts | 253° |
| 2026-04-30 08:40 | 34.98213 | 134.64549 | 32020 ft | 349 kts | 251° |
| 2026-04-30 08:41 | 34.96944 | 134.58829 | 32020 ft | 350 kts | 251° |
| 2026-04-30 08:41 | 34.95683 | 134.53093 | 32013 ft | 351 kts | 251° |
| 2026-04-30 08:41 | 34.95067 | 134.50263 | 31989 ft | 340 kts | 251° |
| 2026-04-30 08:42 | 34.94473 | 134.47525 | 31926 ft | 330 kts | 251° |
| 2026-04-30 08:42 | 34.93890 | 134.44843 | 31695 ft | 322 kts | 250° |
| 2026-04-30 08:42 | 34.93318 | 134.42219 | 31333 ft | 319 kts | 250° |
| 2026-04-30 08:42 | 34.92752 | 134.39629 | 31003 ft | 315 kts | 250° |
| 2026-04-30 08:43 | 34.92190 | 134.37045 | 30540 ft | 316 kts | 250° |
| 2026-04-30 08:43 | 34.91632 | 134.34464 | 30157 ft | 314 kts | 250° |
| 2026-04-30 08:43 | 34.91078 | 134.31893 | 29730 ft | 312 kts | 251° |
| 2026-04-30 08:43 | 34.90529 | 134.29349 | 29306 ft | 310 kts | 251° |
| 2026-04-30 08:44 | 34.89982 | 134.26816 | 28906 ft | 307 kts | 251° |
| 2026-04-30 08:44 | 34.89441 | 134.24313 | 28520 ft | 304 kts | 251° |
| 2026-04-30 08:44 | 34.88904 | 134.21839 | 28148 ft | 301 kts | 251° |
| 2026-04-30 08:44 | 34.88371 | 134.19387 | 27773 ft | 298 kts | 251° |
| 2026-04-30 08:45 | 34.87835 | 134.16939 | 27147 ft | 303 kts | 251° |
| 2026-04-30 08:45 | 34.87276 | 134.14422 | 26562 ft | 308 kts | 251° |
| 2026-04-30 08:45 | 34.86717 | 134.11904 | 26102 ft | 308 kts | 251° |
| 2026-04-30 08:45 | 34.86167 | 134.09428 | 25739 ft | 307 kts | 251° |
| 2026-04-30 08:46 | 34.85612 | 134.06926 | 25393 ft | 305 kts | 251° |
| 2026-04-30 08:46 | 34.85059 | 134.04436 | 24991 ft | 304 kts | 251° |
| 2026-04-30 08:46 | 34.84507 | 134.01951 | 24634 ft | 303 kts | 251° |
| 2026-04-30 08:46 | 34.83955 | 133.99476 | 24252 ft | 303 kts | 251° |
| 2026-04-30 08:47 | 34.83405 | 133.97007 | 23884 ft | 302 kts | 252° |
| 2026-04-30 08:47 | 34.82858 | 133.94553 | 23491 ft | 301 kts | 252° |
| 2026-04-30 08:47 | 34.82309 | 133.92098 | 23092 ft | 300 kts | 252° |
| 2026-04-30 08:47 | 34.81763 | 133.89652 | 22709 ft | 298 kts | 252° |
| 2026-04-30 08:48 | 34.81221 | 133.87228 | 22352 ft | 296 kts | 252° |
| 2026-04-30 08:48 | 34.80681 | 133.84818 | 21986 ft | 294 kts | 252° |
| 2026-04-30 08:48 | 34.80146 | 133.82428 | 21649 ft | 292 kts | 252° |
| 2026-04-30 08:48 | 34.79612 | 133.80049 | 21297 ft | 290 kts | 252° |
| 2026-04-30 08:49 | 34.79082 | 133.77691 | 20953 ft | 288 kts | 252° |
| 2026-04-30 08:49 | 34.78555 | 133.75344 | 20614 ft | 286 kts | 252° |
| 2026-04-30 08:49 | 34.78031 | 133.73015 | 20279 ft | 285 kts | 252° |
| 2026-04-30 08:49 | 34.77508 | 133.70697 | 19940 ft | 284 kts | 253° |
| 2026-04-30 08:50 | 34.76989 | 133.68393 | 19603 ft | 283 kts | 253° |
| 2026-04-30 08:50 | 34.76470 | 133.66093 | 19267 ft | 281 kts | 253° |
| 2026-04-30 08:50 | 34.75952 | 133.63804 | 18948 ft | 280 kts | 253° |
| 2026-04-30 08:50 | 34.75443 | 133.61550 | 18632 ft | 280 kts | 253° |
| 2026-04-30 08:51 | 34.74925 | 133.59265 | 18279 ft | 280 kts | 253° |
| 2026-04-30 08:51 | 34.74411 | 133.56990 | 17894 ft | 278 kts | 253° |
| 2026-04-30 08:51 | 34.73897 | 133.54726 | 17553 ft | 277 kts | 253° |
| 2026-04-30 08:51 | 34.73386 | 133.52472 | 17206 ft | 276 kts | 253° |
| 2026-04-30 08:52 | 34.72876 | 133.50229 | 16882 ft | 275 kts | 253° |
| 2026-04-30 08:52 | 34.72366 | 133.47987 | 16536 ft | 274 kts | 253° |
| 2026-04-30 08:52 | 34.71859 | 133.45759 | 16209 ft | 273 kts | 253° |
| 2026-04-30 08:52 | 34.71354 | 133.43539 | 15881 ft | 272 kts | 253° |
| 2026-04-30 08:53 | 34.70850 | 133.41324 | 15560 ft | 272 kts | 253° |
| 2026-04-30 08:53 | 34.70343 | 133.39102 | 15228 ft | 276 kts | 253° |
| 2026-04-30 08:53 | 34.69826 | 133.36842 | 14889 ft | 280 kts | 253° |
| 2026-04-30 08:53 | 34.69297 | 133.34533 | 14543 ft | 287 kts | 252° |
| 2026-04-30 08:54 | 34.68688 | 133.32209 | 14207 ft | 289 kts | 249° |
| 2026-04-30 08:54 | 34.68008 | 133.29916 | 13911 ft | 287 kts | 249° |
| 2026-04-30 08:54 | 34.67328 | 133.27634 | 13552 ft | 287 kts | 249° |
| 2026-04-30 08:54 | 34.66654 | 133.25352 | 13182 ft | 287 kts | 249° |
| 2026-04-30 08:55 | 34.65984 | 133.23067 | 12799 ft | 287 kts | 249° |
| 2026-04-30 08:55 | 34.65314 | 133.20782 | 12424 ft | 288 kts | 249° |
| 2026-04-30 08:55 | 34.64643 | 133.18491 | 12067 ft | 288 kts | 249° |
| 2026-04-30 08:55 | 34.63983 | 133.16236 | 11739 ft | 287 kts | 249° |
| 2026-04-30 08:56 | 34.63315 | 133.13957 | 11384 ft | 286 kts | 248° |
| 2026-04-30 08:56 | 34.62649 | 133.11685 | 11094 ft | 284 kts | 248° |
| 2026-04-30 08:56 | 34.61987 | 133.09425 | 10780 ft | 284 kts | 248° |
| 2026-04-30 08:56 | 34.61325 | 133.07172 | 10497 ft | 282 kts | 248° |
| 2026-04-30 08:57 | 34.60677 | 133.04962 | 10385 ft | 274 kts | 248° |
| 2026-04-30 08:57 | 34.60045 | 133.02811 | 10272 ft | 267 kts | 248° |
| 2026-04-30 08:57 | 34.59422 | 133.00694 | 10086 ft | 266 kts | 248° |
| 2026-04-30 08:57 | 34.58797 | 132.98569 | 9779 ft | 269 kts | 248° |
| 2026-04-30 08:58 | 34.58164 | 132.96425 | 9491 ft | 269 kts | 247° |
| 2026-04-30 08:58 | 34.57536 | 132.94294 | 9233 ft | 267 kts | 247° |
| 2026-04-30 08:58 | 34.56914 | 132.92182 | 8965 ft | 265 kts | 246° |
| 2026-04-30 08:58 | 34.56297 | 132.90074 | 8660 ft | 265 kts | 246° |
| 2026-04-30 08:59 | 34.55689 | 132.87969 | 8390 ft | 264 kts | 246° |
| 2026-04-30 08:59 | 34.55093 | 132.85869 | 8098 ft | 263 kts | 246° |
| 2026-04-30 08:59 | 34.54508 | 132.83770 | 7800 ft | 262 kts | 246° |
| 2026-04-30 08:59 | 34.53936 | 132.81680 | 7571 ft | 261 kts | 246° |
| 2026-04-30 09:00 | 34.53398 | 132.79574 | 7299 ft | 261 kts | 248° |
| 2026-04-30 09:00 | 34.52903 | 132.77456 | 7007 ft | 261 kts | 248° |
| 2026-04-30 09:00 | 34.52422 | 132.75338 | 6743 ft | 259 kts | 248° |
| 2026-04-30 09:00 | 34.51957 | 132.73232 | 6392 ft | 260 kts | 248° |
| 2026-04-30 09:01 | 34.51498 | 132.71096 | 6141 ft | 258 kts | 248° |
| 2026-04-30 09:01 | 34.50902 | 132.69096 | 5868 ft | 249 kts | 230° |
| 2026-04-30 09:01 | 34.49701 | 132.67752 | 5485 ft | 231 kts | 201° |
| 2026-04-30 09:01 | 34.48214 | 132.67307 | 5150 ft | 213 kts | 184° |
| 2026-04-30 09:02 | 34.45412 | 132.67094 | 4404 ft | 189 kts | 165° |
| 2026-04-30 09:02 | 34.44394 | 132.67959 | 4030 ft | 182 kts | 119° |
| 2026-04-30 09:02 | 34.44128 | 132.69442 | 3871 ft | 178 kts | 103° |
| 2026-04-30 09:03 | 34.43882 | 132.70865 | 3744 ft | 168 kts | 103° |
| 2026-04-30 09:03 | 34.43731 | 132.72235 | 3614 ft | 163 kts | 100° |
| 2026-04-30 09:03 | 34.43645 | 132.73599 | 3507 ft | 162 kts | 96° |
| 2026-04-30 09:03 | 34.43617 | 132.74941 | 3397 ft | 157 kts | 94° |
| 2026-04-30 09:04 | 34.43610 | 132.76245 | 3281 ft | 153 kts | 94° |
| 2026-04-30 09:04 | 34.43607 | 132.77531 | 3165 ft | 155 kts | 94° |
| 2026-04-30 09:04 | 34.43604 | 132.78851 | 2958 ft | 157 kts | 92° |
| 2026-04-30 09:04 | 34.43604 | 132.80177 | 2753 ft | 158 kts | 92° |
| 2026-04-30 09:05 | 34.43603 | 132.81510 | 2541 ft | 159 kts | 91° |
| 2026-04-30 09:05 | 34.43602 | 132.82853 | 2325 ft | 160 kts | 91° |
| 2026-04-30 09:05 | 34.43601 | 132.84177 | 2094 ft | 153 kts | 89° |
| 2026-04-30 09:05 | 34.43601 | 132.85412 | 1921 ft | 146 kts | 90° |
| 2026-04-30 09:06 | 34.43601 | 132.86632 | 1709 ft | 143 kts | 89° |
| 2026-04-30 09:06 | 34.43601 | 132.87815 | 1516 ft | 138 kts | 88° |
| 2026-04-30 09:06 | 34.43601 | 132.88579 | 1398 ft | 137 kts | 89° |
| 2026-04-30 09:06 | 34.43603 | 132.90101 | 1162 ft | 135 kts | 89° |
| 2026-04-30 09:07 | 34.43606 | 132.91196 | 1077 ft | 118 kts | 89° |
| 2026-04-30 09:07 | 34.43607 | 132.91748 | 1077 ft | 76 kts | 90° |
| 2026-04-30 09:07 | 34.43609 | 132.92156 | 1080 ft | 15 kts | 82° |
| 2026-04-30 09:07 | 34.43691 | 132.92212 | 1077 ft | 14 kts | 0° |
| 2026-04-30 09:08 | 34.43736 | 132.92201 | 1078 ft | 9 kts | 325° |
| 2026-04-30 09:08 | 34.43769 | 132.92124 | 1078 ft | 13 kts | 283° |
| 2026-04-30 09:08 | 34.43774 | 132.92013 | 1077 ft | 7 kts | 291° |
| 2026-04-30 09:08 | 34.43830 | 132.92004 | 1078 ft | 11 kts | 5° |
| 2026-04-30 09:09 | 34.43894 | 132.92005 | 1078 ft | 2 kts | 0° |
| 2026-04-30 09:09 | 34.43895 | 132.92005 | 1078 ft | 0 kts | 0° |